Chesterfield, MO

4:57 PM CST on March 03, 2015 (GMT -0600)
Spirit Of Saint Louis | Change Station
CLOSE
Current Station
Airport
Location: Spirit of St Louis,
Elevation: 463 ft
Nearby Weather Stations

Elev 463 ft 38.66 °N, 90.66 °W | Updated 1 hour ago

Overcast
Overcast
43 °F
Feels Like 43 °F
N
0
Wind Variable Wind from North

Today
High -- | Low -- °F
--% Chance of Precip.
Yesterday
High -- | Low -- °F
Precip. -- in
6:32 AM 5:57 PM
Waxing Gibbous, 97% visible
Pressure 29.84 in
Visibility 4.0 miles
Clouds Overcast 2200 ft
Dew Point 42 °F
Humidity 97%
Rainfall 0.01 in
Snow Depth Not available.
UV 1 out of 12
Pollen 3.60 out of 12
Air Quality Not available.
Flu Activity Not available.
METAR KSUS 032154Z 00000KT 4SM BR OVC022 06/06 A2982 RMK AO2 SLP103 T00610056

More Conditions Fewer Conditions

Pressure 29.84 in
Visibility 4.0 miles
Clouds Overcast 2200 ft
Dew Point 42 °F
Humidity 97%
Rainfall 0.01 in
Snow Depth Not available.
UV 1 out of 12
Pollen 3.60 out of 12
Air Quality Not available.
Flu Activity Not available.
METAR KSUS 032154Z 00000KT 4SM BR OVC022 06/06 A2982 RMK AO2 SLP103 T00610056

More Conditions Fewer Conditions

10-Day Weather Forecast

Almanac

Astronomy

Mar. 03, 2015 Rise Set
Actual Time
Civil Twilight
Nautical Twilight
Astronomical Twilight
Moon
Length of Visible Light
Length of Day
Tomorrow will be .
, % of the Moon is Illuminated

Today's Extremes

State Highs State Lows

Community

WunderPhotos

Upload Photos

1,802,299 photos uploaded!

WunderBlogs® & News

Nearby

Air Quality

  Air Quality AQ Index Pollutant
Not available.

Snow Depth

Station Depth Elevation

Earthquake Activity

City Distance Mag. Time & Date
Minimum magnitude displayed is 2.5.

Coastal Water Temperatures

Place Temperature

Nearby Weather Stations